sensor_id;sensor_type;location;lat;lon;timestamp;pressure;altitude;pressure_sealevel;temperature;humidity
12879;BME280;20617;49.476;10.986;2023-03-18T00:01:14;97772.09;;;10.26;100.00
12879;BME280;20617;49.476;10.986;2023-03-18T00:03:18;97773.03;;;10.25;100.00
12879;BME280;20617;49.476;10.986;2023-03-18T00:05:24;97774.84;;;10.23;100.00
12879;BME280;20617;49.476;10.986;2023-03-18T00:07:28;97777.59;;;10.19;100.00
12879;BME280;20617;49.476;10.986;2023-03-18T00:09:33;97775.94;;;10.18;100.00
12879;BME280;20617;49.476;10.986;2023-03-18T00:11:38;97769.16;;;10.14;100.00
12879;BME280;20617;49.476;10.986;2023-03-18T00:13:43;97773.06;;;10.06;100.00
12879;BME280;20617;49.476;10.986;2023-03-18T00:15:49;97779.53;;;9.97;100.00
12879;BME280;20617;49.476;10.986;2023-03-18T00:17:57;97778.22;;;9.88;100.00
12879;BME280;20617;49.476;10.986;2023-03-18T00:20:03;97771.41;;;9.86;100.00
12879;BME280;20617;49.476;10.986;2023-03-18T00:22:09;97775.00;;;9.83;100.00
12879;BME280;20617;49.476;10.986;2023-03-18T00:24:14;97775.22;;;9.79;100.00
12879;BME280;20617;49.476;10.986;2023-03-18T00:26:19;97775.22;;;9.79;100.00
12879;BME280;20617;49.476;10.986;2023-03-18T00:28:24;97770.00;;;9.79;100.00
12879;BME280;20617;49.476;10.986;2023-03-18T00:30:29;97778.72;;;9.78;100.00
12879;BME280;20617;49.476;10.986;2023-03-18T00:32:34;97774.50;;;9.75;100.00
12879;BME280;20617;49.476;10.986;2023-03-18T00:34:42;97774.50;;;9.75;100.00
12879;BME280;20617;49.476;10.986;2023-03-18T00:36:47;97776.53;;;9.68;100.00
12879;BME280;20617;49.476;10.986;2023-03-18T00:38:57;97777.53;;;9.66;100.00
12879;BME280;20617;49.476;10.986;2023-03-18T00:41:04;97775.94;;;9.63;100.00
12879;BME280;20617;49.476;10.986;2023-03-18T00:43:17;97786.31;;;9.63;100.00
12879;BME280;20617;49.476;10.986;2023-03-18T00:45:23;97786.38;;;9.62;100.00
12879;BME280;20617;49.476;10.986;2023-03-18T00:47:28;97780.41;;;9.60;100.00
12879;BME280;20617;49.476;10.986;2023-03-18T00:49:34;97783.88;;;9.60;100.00
12879;BME280;20617;49.476;10.986;2023-03-18T00:51:42;97778.81;;;9.57;100.00
12879;BME280;20617;49.476;10.986;2023-03-18T00:53:48;97785.03;;;9.53;100.00
12879;BME280;20617;49.476;10.986;2023-03-18T00:55:53;97782.66;;;9.48;100.00
12879;BME280;20617;49.476;10.986;2023-03-18T00:57:58;97781.19;;;9.43;100.00
12879;BME280;20617;49.476;10.986;2023-03-18T01:00:05;97780.41;;;9.41;100.00
12879;BME280;20617;49.476;10.986;2023-03-18T01:02:10;97789.13;;;9.40;100.00
12879;BME280;20617;49.476;10.986;2023-03-18T01:04:17;97783.19;;;9.36;100.00
12879;BME280;20617;49.476;10.986;2023-03-18T01:06:23;97777.38;;;9.31;100.00
12879;BME280;20617;49.476;10.986;2023-03-18T01:08:31;97780.88;;;9.30;100.00
12879;BME280;20617;49.476;10.986;2023-03-18T01:10:36;97780.88;;;9.30;100.00
12879;BME280;20617;49.476;10.986;2023-03-18T01:12:43;97783.47;;;9.30;100.00
12879;BME280;20617;49.476;10.986;2023-03-18T01:14:50;97781.81;;;9.29;100.00
12879;BME280;20617;49.476;10.986;2023-03-18T01:16:55;97785.31;;;9.28;100.00
12879;BME280;20617;49.476;10.986;2023-03-18T01:19:00;97785.50;;;9.23;100.00
12879;BME280;20617;49.476;10.986;2023-03-18T01:21:06;97783.84;;;9.22;100.00
12879;BME280;20617;49.476;10.986;2023-03-18T01:23:20;97790.88;;;9.19;100.00
12879;BME280;20617;49.476;10.986;2023-03-18T01:25:27;97786.81;;;9.13;100.00
12879;BME280;20617;49.476;10.986;2023-03-18T01:27:32;97788.66;;;9.11;100.00
12879;BME280;20617;49.476;10.986;2023-03-18T01:29:38;97788.69;;;9.10;100.00
12879;BME280;20617;49.476;10.986;2023-03-18T01:31:49;97794.72;;;9.10;100.00
12879;BME280;20617;49.476;10.986;2023-03-18T01:33:57;97792.28;;;9.07;100.00
12879;BME280;20617;49.476;10.986;2023-03-18T01:36:09;97790.59;;;9.06;100.00
12879;BME280;20617;49.476;10.986;2023-03-18T01:38:16;97795.78;;;9.06;100.00
12879;BME280;20617;49.476;10.986;2023-03-18T01:40:21;97796.72;;;9.05;100.00
12879;BME280;20617;49.476;10.986;2023-03-18T01:42:31;97793.25;;;9.04;100.00
12879;BME280;20617;49.476;10.986;2023-03-18T01:44:36;97794.25;;;9.02;100.00
12879;BME280;20617;49.476;10.986;2023-03-18T01:46:43;97800.47;;;8.98;100.00
12879;BME280;20617;49.476;10.986;2023-03-18T01:48:49;97795.22;;;8.99;100.00
12879;BME280;20617;49.476;10.986;2023-03-18T01:50:58;97786.59;;;8.99;100.00
12879;BME280;20617;49.476;10.986;2023-03-18T01:53:08;97799.75;;;8.94;100.00
12879;BME280;20617;49.476;10.986;2023-03-18T01:55:17;97805.00;;;8.93;100.00
12879;BME280;20617;49.476;10.986;2023-03-18T01:57:23;97800.81;;;8.90;100.00
12879;BME280;20617;49.476;10.986;2023-03-18T01:59:32;97797.44;;;8.88;100.00
12879;BME280;20617;49.476;10.986;2023-03-18T02:01:42;97805.22;;;8.88;100.00
12879;BME280;20617;49.476;10.986;2023-03-18T02:03:50;97808.59;;;8.90;100.00
12879;BME280;20617;49.476;10.986;2023-03-18T02:05:56;97813.72;;;8.92;100.00
12879;BME280;20617;49.476;10.986;2023-03-18T02:08:01;97815.50;;;8.90;100.00
12879;BME280;20617;49.476;10.986;2023-03-18T02:10:09;97812.88;;;8.91;100.00
12879;BME280;20617;49.476;10.986;2023-03-18T02:12:20;97817.09;;;8.94;100.00
12879;BME280;20617;49.476;10.986;2023-03-18T02:14:31;97819.75;;;8.92;100.00
12879;BME280;20617;49.476;10.986;2023-03-18T02:16:41;97827.47;;;8.94;100.00
12879;BME280;20617;49.476;10.986;2023-03-18T02:18:51;97826.63;;;8.93;100.00
12879;BME280;20617;49.476;10.986;2023-03-18T02:21:09;97823.16;;;8.93;100.00
12879;BME280;20617;49.476;10.986;2023-03-18T02:23:25;97823.16;;;8.93;100.00
12879;BME280;20617;49.476;10.986;2023-03-18T02:25:38;97826.81;;;8.89;100.00
12879;BME280;20617;49.476;10.986;2023-03-18T02:27:53;97827.75;;;8.88;100.00
12879;BME280;20617;49.476;10.986;2023-03-18T02:30:07;97834.59;;;8.89;100.00
12879;BME280;20617;49.476;10.986;2023-03-18T02:32:15;97827.91;;;8.83;100.00
12879;BME280;20617;49.476;10.986;2023-03-18T02:34:22;97830.59;;;8.81;100.00
12879;BME280;20617;49.476;10.986;2023-03-18T02:36:30;97827.22;;;8.79;100.00
12879;BME280;20617;49.476;10.986;2023-03-18T02:38:44;97833.41;;;8.75;100.00
12879;BME280;20617;49.476;10.986;2023-03-18T02:40:56;97833.50;;;8.74;100.00
12879;BME280;20617;49.476;10.986;2023-03-18T02:43:22;97833.50;;;8.74;100.00
12879;BME280;20617;49.476;10.986;2023-03-18T02:45:39;97836.22;;;8.71;100.00
12879;BME280;20617;49.476;10.986;2023-03-18T02:47:46;97836.34;;;8.68;100.00
12879;BME280;20617;49.476;10.986;2023-03-18T02:49:52;97830.38;;;8.66;100.00
12879;BME280;20617;49.476;10.986;2023-03-18T02:51:57;97833.81;;;8.66;100.00
12879;BME280;20617;49.476;10.986;2023-03-18T02:54:06;97836.53;;;8.63;100.00
12879;BME280;20617;49.476;10.986;2023-03-18T02:56:12;97838.34;;;8.61;100.00
12879;BME280;20617;49.476;10.986;2023-03-18T02:58:21;97839.13;;;8.63;100.00
12879;BME280;20617;49.476;10.986;2023-03-18T03:00:29;97841.00;;;8.59;100.00
12879;BME280;20617;49.476;10.986;2023-03-18T03:02:34;97848.06;;;8.56;100.00
12879;BME280;20617;49.476;10.986;2023-03-18T03:04:39;97845.59;;;8.53;100.00
12879;BME280;20617;49.476;10.986;2023-03-18T03:06:45;97849.09;;;8.52;100.00
12879;BME280;20617;49.476;10.986;2023-03-18T03:08:54;97855.31;;;8.48;100.00
12879;BME280;20617;49.476;10.986;2023-03-18T03:10:59;97852.75;;;8.46;100.00
12879;BME280;20617;49.476;10.986;2023-03-18T03:13:07;97858.81;;;8.47;100.00
12879;BME280;20617;49.476;10.986;2023-03-18T03:15:16;97854.41;;;8.49;100.00
12879;BME280;20617;49.476;10.986;2023-03-18T03:17:27;97864.78;;;8.49;100.00
12879;BME280;20617;49.476;10.986;2023-03-18T03:19:32;97858.75;;;8.48;100.00
12879;BME280;20617;49.476;10.986;2023-03-18T03:21:37;97866.59;;;8.47;100.00
12879;BME280;20617;49.476;10.986;2023-03-18T03:23:44;97861.47;;;8.45;100.00
12879;BME280;20617;49.476;10.986;2023-03-18T03:25:49;97865.72;;;8.46;100.00
12879;BME280;20617;49.476;10.986;2023-03-18T03:27:54;97866.72;;;8.44;100.00
12879;BME280;20617;49.476;10.986;2023-03-18T03:29:59;97866.72;;;8.44;100.00
12879;BME280;20617;49.476;10.986;2023-03-18T03:32:07;97873.47;;;8.48;100.00
12879;BME280;20617;49.476;10.986;2023-03-18T03:34:12;97869.13;;;8.48;100.00
12879;BME280;20617;49.476;10.986;2023-03-18T03:36:17;97868.28;;;8.48;100.00
12879;BME280;20617;49.476;10.986;2023-03-18T03:38:22;97869.19;;;8.47;100.00
12879;BME280;20617;49.476;10.986;2023-03-18T03:40:29;97865.81;;;8.45;100.00
12879;BME280;20617;49.476;10.986;2023-03-18T03:42:34;97878.81;;;8.43;100.00
12879;BME280;20617;49.476;10.986;2023-03-18T03:44:39;97868.53;;;8.42;100.00
12879;BME280;20617;49.476;10.986;2023-03-18T03:46:44;97867.81;;;8.36;100.00
12879;BME280;20617;49.476;10.986;2023-03-18T03:48:52;97871.63;;;8.28;100.00
12879;BME280;20617;49.476;10.986;2023-03-18T03:50:57;97874.22;;;8.28;100.00
12879;BME280;20617;49.476;10.986;2023-03-18T03:53:02;97869.81;;;8.30;100.00
12879;BME280;20617;49.476;10.986;2023-03-18T03:55:10;97874.06;;;8.32;100.00
12879;BME280;20617;49.476;10.986;2023-03-18T03:57:16;97880.00;;;8.34;100.00
12879;BME280;20617;49.476;10.986;2023-03-18T03:59:21;97876.44;;;8.37;100.00
12879;BME280;20617;49.476;10.986;2023-03-18T04:01:47;97877.47;;;8.33;100.00
12879;BME280;20617;49.476;10.986;2023-03-18T04:03:55;97876.66;;;8.32;100.00
12879;BME280;20617;49.476;10.986;2023-03-18T04:06:01;97880.19;;;8.30;100.00
12879;BME280;20617;49.476;10.986;2023-03-18T04:08:09;97882.00;;;8.28;100.00
12879;BME280;20617;49.476;10.986;2023-03-18T04:10:16;97879.25;;;8.32;100.00
12879;BME280;20617;49.476;10.986;2023-03-18T04:12:21;97883.47;;;8.35;100.00
12879;BME280;20617;49.476;10.986;2023-03-18T04:14:31;97884.22;;;8.37;100.00
12879;BME280;20617;49.476;10.986;2023-03-18T04:16:36;97881.63;;;8.37;100.00
12879;BME280;20617;49.476;10.986;2023-03-18T04:18:43;97888.66;;;8.35;100.00
12879;BME280;20617;49.476;10.986;2023-03-18T04:20:50;97882.00;;;8.28;100.00
12879;BME280;20617;49.476;10.986;2023-03-18T04:23:25;97881.28;;;8.24;100.00
12879;BME280;20617;49.476;10.986;2023-03-18T04:25:30;97884.59;;;8.28;100.00
12879;BME280;20617;49.476;10.986;2023-03-18T04:27:36;97877.53;;;8.31;100.00
12879;BME280;20617;49.476;10.986;2023-03-18T04:29:44;97879.28;;;8.31;100.00
12879;BME280;20617;49.476;10.986;2023-03-18T04:31:49;97875.84;;;8.30;100.00
12879;BME280;20617;49.476;10.986;2023-03-18T04:33:55;97869.75;;;8.31;100.00
12879;BME280;20617;49.476;10.986;2023-03-18T04:36:04;97875.91;;;8.29;100.00
12879;BME280;20617;49.476;10.986;2023-03-18T04:38:11;97872.59;;;8.25;100.00
12879;BME280;20617;49.476;10.986;2023-03-18T04:40:16;97878.69;;;8.24;100.00
12879;BME280;20617;49.476;10.986;2023-03-18T04:42:21;97874.47;;;8.22;100.00
12879;BME280;20617;49.476;10.986;2023-03-18T04:44:26;97878.09;;;8.18;100.00
12879;BME280;20617;49.476;10.986;2023-03-18T04:46:34;97878.97;;;8.16;100.00
12879;BME280;20617;49.476;10.986;2023-03-18T04:48:40;97876.44;;;8.15;100.00
12879;BME280;20617;49.476;10.986;2023-03-18T04:50:46;97877.34;;;8.14;100.00
12879;BME280;20617;49.476;10.986;2023-03-18T04:53:00;97879.16;;;8.12;100.00
12879;BME280;20617;49.476;10.986;2023-03-18T04:55:06;97888.75;;;8.10;100.00
12879;BME280;20617;49.476;10.986;2023-03-18T04:57:13;97883.59;;;8.08;100.00
12879;BME280;20617;49.476;10.986;2023-03-18T04:59:24;97880.97;;;8.10;100.00
12879;BME280;20617;49.476;10.986;2023-03-18T05:01:31;97878.28;;;8.11;100.00
12879;BME280;20617;49.476;10.986;2023-03-18T05:03:36;97885.13;;;8.14;100.00
12879;BME280;20617;49.476;10.986;2023-03-18T05:05:42;97879.88;;;8.15;100.00
12879;BME280;20617;49.476;10.986;2023-03-18T05:07:50;97889.53;;;8.12;100.00
12879;BME280;20617;49.476;10.986;2023-03-18T05:09:58;97890.41;;;8.11;100.00
12879;BME280;20617;49.476;10.986;2023-03-18T05:12:04;97893.84;;;8.11;100.00
12879;BME280;20617;49.476;10.986;2023-03-18T05:14:10;97896.56;;;8.08;100.00
12879;BME280;20617;49.476;10.986;2023-03-18T05:16:20;97900.13;;;8.06;100.00
12879;BME280;20617;49.476;10.986;2023-03-18T05:18:26;97904.53;;;8.04;100.00
12879;BME280;20617;49.476;10.986;2023-03-18T05:20:34;97895.03;;;8.03;100.00
12879;BME280;20617;49.476;10.986;2023-03-18T05:22:40;97890.84;;;8.00;100.00
12879;BME280;20617;49.476;10.986;2023-03-18T05:24:59;97894.44;;;7.96;100.00
12879;BME280;20617;49.476;10.986;2023-03-18T05:27:05;97890.09;;;7.97;100.00
12879;BME280;20617;49.476;10.986;2023-03-18T05:29:14;97886.53;;;7.99;100.00
12879;BME280;20617;49.476;10.986;2023-03-18T05:31:30;97897.09;;;7.94;100.00
12879;BME280;20617;49.476;10.986;2023-03-18T05:33:36;97900.66;;;7.92;100.00
12879;BME280;20617;49.476;10.986;2023-03-18T05:35:44;97899.00;;;7.89;100.00
12879;BME280;20617;49.476;10.986;2023-03-18T05:37:51;97907.69;;;7.88;100.00
12879;BME280;20617;49.476;10.986;2023-03-18T05:39:59;97912.00;;;7.88;100.00
12879;BME280;20617;49.476;10.986;2023-03-18T05:42:06;97900.81;;;7.87;100.00
12879;BME280;20617;49.476;10.986;2023-03-18T05:44:12;97896.56;;;7.85;100.00
12879;BME280;20617;49.476;10.986;2023-03-18T05:46:18;97904.34;;;7.85;100.00
12879;BME280;20617;49.476;10.986;2023-03-18T05:48:50;97906.94;;;7.85;100.00
12879;BME280;20617;49.476;10.986;2023-03-18T05:50:57;97908.66;;;7.86;100.00
12879;BME280;20617;49.476;10.986;2023-03-18T05:53:05;97900.88;;;7.86;100.00
12879;BME280;20617;49.476;10.986;2023-03-18T05:55:15;97911.06;;;7.90;100.00
12879;BME280;20617;49.476;10.986;2023-03-18T05:57:20;97905.03;;;7.90;100.00
12879;BME280;20617;49.476;10.986;2023-03-18T05:59:40;97905.94;;;7.89;100.00
12879;BME280;20617;49.476;10.986;2023-03-18T06:01:46;97906.06;;;7.86;100.00
12879;BME280;20617;49.476;10.986;2023-03-18T06:03:51;97905.09;;;7.88;100.00
12879;BME280;20617;49.476;10.986;2023-03-18T06:05:56;97905.09;;;7.88;100.00
12879;BME280;20617;49.476;10.986;2023-03-18T06:08:02;97905.16;;;7.87;100.00
12879;BME280;20617;49.476;10.986;2023-03-18T06:10:10;97908.53;;;7.89;100.00
12879;BME280;20617;49.476;10.986;2023-03-18T06:12:20;97911.84;;;7.92;100.00
12879;BME280;20617;49.476;10.986;2023-03-18T06:14:28;97904.88;;;7.94;100.00
12879;BME280;20617;49.476;10.986;2023-03-18T06:16:36;97904.81;;;7.96;100.00
12879;BME280;20617;49.476;10.986;2023-03-18T06:18:45;97913.38;;;7.98;100.00
12879;BME280;20617;49.476;10.986;2023-03-18T06:21:00;97913.25;;;8.01;100.00
12879;BME280;20617;49.476;10.986;2023-03-18T06:23:09;97907.97;;;8.04;100.00
12879;BME280;20617;49.476;10.986;2023-03-18T06:25:37;97908.69;;;8.08;100.00
12879;BME280;20617;49.476;10.986;2023-03-18T06:28:17;97915.50;;;8.10;100.00
12879;BME280;20617;49.476;10.986;2023-03-18T06:30:30;97917.97;;;8.13;100.00
12879;BME280;20617;49.476;10.986;2023-03-18T06:32:40;97910.16;;;8.15;100.00
12879;BME280;20617;49.476;10.986;2023-03-18T06:34:59;97922.22;;;8.16;100.00
12879;BME280;20617;49.476;10.986;2023-03-18T06:39:43;97921.28;;;8.17;100.00
12879;BME280;20617;49.476;10.986;2023-03-18T06:42:01;97923.84;;;8.19;100.00
12879;BME280;20617;49.476;10.986;2023-03-18T06:44:27;97919.38;;;8.22;100.00
12879;BME280;20617;49.476;10.986;2023-03-18T06:48:26;97918.31;;;8.28;100.00
12879;BME280;20617;49.476;10.986;2023-03-18T06:50:15;97925.00;;;8.33;100.00
12879;BME280;20617;49.476;10.986;2023-03-18T06:52:38;97927.44;;;8.38;100.00
12879;BME280;20617;49.476;10.986;2023-03-18T06:54:47;97921.25;;;8.42;100.00
12879;BME280;20617;49.476;10.986;2023-03-18T06:56:56;97927.16;;;8.46;100.00
12879;BME280;20617;49.476;10.986;2023-03-18T06:59:04;97923.78;;;8.44;100.00
12879;BME280;20617;49.476;10.986;2023-03-18T07:01:19;97929.81;;;8.44;100.00
12879;BME280;20617;49.476;10.986;2023-03-18T07:03:25;97929.81;;;8.44;100.00
12879;BME280;20617;49.476;10.986;2023-03-18T07:05:36;97928.97;;;8.44;100.00
12879;BME280;20617;49.476;10.986;2023-03-18T07:07:51;97930.91;;;8.37;100.00
12879;BME280;20617;49.476;10.986;2023-03-18T07:10:17;97936.84;;;8.41;100.00
12879;BME280;20617;49.476;10.986;2023-03-18T07:12:27;97936.84;;;8.41;100.00
12879;BME280;20617;49.476;10.986;2023-03-18T07:14:37;97940.19;;;8.44;100.00
12879;BME280;20617;49.476;10.986;2023-03-18T07:16:58;97941.72;;;8.50;100.00
12879;BME280;20617;49.476;10.986;2023-03-18T07:19:16;97939.88;;;8.52;100.00
12879;BME280;20617;49.476;10.986;2023-03-18T07:21:22;97943.94;;;8.59;100.00
12879;BME280;20617;49.476;10.986;2023-03-18T07:23:35;97946.28;;;8.65;100.00
12879;BME280;20617;49.476;10.986;2023-03-18T07:25:48;97947.00;;;8.69;100.00
12879;BME280;20617;49.476;10.986;2023-03-18T07:27:56;97954.63;;;8.73;100.00
12879;BME280;20617;49.476;10.986;2023-03-18T07:30:03;97952.06;;;8.72;100.00
12879;BME280;20617;49.476;10.986;2023-03-18T07:32:15;97953.72;;;8.74;100.00
12879;BME280;20617;49.476;10.986;2023-03-18T07:34:23;97964.09;;;8.74;100.00
12879;BME280;20617;49.476;10.986;2023-03-18T07:36:37;97961.50;;;8.74;100.00
12879;BME280;20617;49.476;10.986;2023-03-18T07:38:47;97967.47;;;8.76;100.00
12879;BME280;20617;49.476;10.986;2023-03-18T07:40:55;97960.28;;;8.83;100.00
12879;BME280;20617;49.476;10.986;2023-03-18T07:43:01;97967.91;;;8.88;100.00
12879;BME280;20617;49.476;10.986;2023-03-18T07:45:08;97961.63;;;8.93;100.00
12879;BME280;20617;49.476;10.986;2023-03-18T07:47:15;97969.91;;;9.01;100.00
12879;BME280;20617;49.476;10.986;2023-03-18T07:49:34;97964.69;;;9.03;100.00
12879;BME280;20617;49.476;10.986;2023-03-18T07:51:39;97966.22;;;9.07;100.00
12879;BME280;20617;49.476;10.986;2023-03-18T07:53:43;97975.53;;;9.13;100.00
12879;BME280;20617;49.476;10.986;2023-03-18T07:55:48;97972.88;;;9.14;100.00
12879;BME280;20617;49.476;10.986;2023-03-18T07:57:53;97968.34;;;9.19;100.00
12879;BME280;20617;49.476;10.986;2023-03-18T07:59:58;97969.91;;;9.23;100.00
12879;BME280;20617;49.476;10.986;2023-03-18T08:02:16;97971.28;;;9.32;100.00
12879;BME280;20617;49.476;10.986;2023-03-18T08:04:21;97973.56;;;9.40;100.00
12879;BME280;20617;49.476;10.986;2023-03-18T08:06:26;97975.13;;;9.44;100.00
12879;BME280;20617;49.476;10.986;2023-03-18T08:08:33;97975.78;;;9.49;100.00
12879;BME280;20617;49.476;10.986;2023-03-18T08:10:38;97975.50;;;9.55;100.00
12879;BME280;20617;49.476;10.986;2023-03-18T08:12:43;97976.94;;;9.62;100.00
12879;BME280;20617;49.476;10.986;2023-03-18T08:14:54;97976.41;;;9.74;100.00
12879;BME280;20617;49.476;10.986;2023-03-18T08:17:00;97979.50;;;9.83;100.00
12879;BME280;20617;49.476;10.986;2023-03-18T08:19:08;97981.78;;;9.90;100.00
12879;BME280;20617;49.476;10.986;2023-03-18T08:21:13;97988.47;;;9.96;100.00
12879;BME280;20617;49.476;10.986;2023-03-18T08:23:18;97982.03;;;10.05;100.00
12879;BME280;20617;49.476;10.986;2023-03-18T08:25:23;97989.91;;;10.22;100.00
12879;BME280;20617;49.476;10.986;2023-03-18T08:27:28;97981.25;;;10.42;100.00
12879;BME280;20617;49.476;10.986;2023-03-18T08:29:32;97976.84;;;10.61;100.00
12879;BME280;20617;49.476;10.986;2023-03-18T08:31:37;97977.19;;;10.73;100.00
12879;BME280;20617;49.476;10.986;2023-03-18T08:33:43;97967.75;;;10.89;100.00
12879;BME280;20617;49.476;10.986;2023-03-18T08:35:51;97975.75;;;11.03;100.00
12879;BME280;20617;49.476;10.986;2023-03-18T08:37:56;97970.09;;;11.13;100.00
12879;BME280;20617;49.476;10.986;2023-03-18T08:40:01;97978.28;;;11.22;100.00
12879;BME280;20617;49.476;10.986;2023-03-18T08:42:09;97982.97;;;11.33;100.00
12879;BME280;20617;49.476;10.986;2023-03-18T08:44:14;97987.81;;;11.58;100.00
12879;BME280;20617;49.476;10.986;2023-03-18T08:46:19;97984.59;;;11.70;100.00
12879;BME280;20617;49.476;10.986;2023-03-18T08:48:24;97986.09;;;11.74;100.00
12879;BME280;20617;49.476;10.986;2023-03-18T08:50:29;97980.81;;;11.76;100.00
12879;BME280;20617;49.476;10.986;2023-03-18T08:52:36;97982.34;;;11.80;100.00
12879;BME280;20617;49.476;10.986;2023-03-18T08:54:42;97983.44;;;11.76;100.00
12879;BME280;20617;49.476;10.986;2023-03-18T08:56:46;97987.09;;;11.72;100.00
12879;BME280;20617;49.476;10.986;2023-03-18T08:58:53;97982.97;;;11.68;100.00
12879;BME280;20617;49.476;10.986;2023-03-18T09:00:58;97989.97;;;11.67;100.00
12879;BME280;20617;49.476;10.986;2023-03-18T09:03:04;97981.03;;;11.71;100.00
12879;BME280;20617;49.476;10.986;2023-03-18T09:05:09;97980.16;;;11.72;100.00
12879;BME280;20617;49.476;10.986;2023-03-18T09:07:14;97971.16;;;11.78;100.00
12879;BME280;20617;49.476;10.986;2023-03-18T09:09:22;97976.00;;;11.86;100.00
12879;BME280;20617;49.476;10.986;2023-03-18T09:11:43;97972.31;;;11.90;100.00
12879;BME280;20617;49.476;10.986;2023-03-18T09:13:49;97972.31;;;11.90;100.00
12879;BME280;20617;49.476;10.986;2023-03-18T09:15:54;97971.13;;;11.95;100.00
12879;BME280;20617;49.476;10.986;2023-03-18T09:17:59;97957.88;;;12.00;100.00
12879;BME280;20617;49.476;10.986;2023-03-18T09:20:14;97968.75;;;12.08;100.00
12879;BME280;20617;49.476;10.986;2023-03-18T09:22:20;97965.75;;;12.16;100.00
12879;BME280;20617;49.476;10.986;2023-03-18T09:24:28;97963.88;;;12.18;100.00
12879;BME280;20617;49.476;10.986;2023-03-18T09:26:32;97960.75;;;12.27;100.00
12879;BME280;20617;49.476;10.986;2023-03-18T09:28:37;97960.97;;;12.40;100.00
12879;BME280;20617;49.476;10.986;2023-03-18T09:30:42;97958.25;;;12.41;100.00
12879;BME280;20617;49.476;10.986;2023-03-18T09:32:48;97963.66;;;12.54;100.00
12879;BME280;20617;49.476;10.986;2023-03-18T09:34:52;97956.09;;;12.65;100.00
12879;BME280;20617;49.476;10.986;2023-03-18T09:36:57;97965.09;;;12.76;100.00
12879;BME280;20617;49.476;10.986;2023-03-18T09:39:02;97961.38;;;12.80;100.00
12879;BME280;20617;49.476;10.986;2023-03-18T09:41:20;97962.63;;;12.88;100.00
12879;BME280;20617;49.476;10.986;2023-03-18T09:43:49;97958.56;;;12.99;100.00
12879;BME280;20617;49.476;10.986;2023-03-18T09:46:02;97954.66;;;13.06;100.00
12879;BME280;20617;49.476;10.986;2023-03-18T09:48:38;97955.66;;;13.19;100.00
12879;BME280;20617;49.476;10.986;2023-03-18T09:50:52;97955.16;;;13.28;100.00
12879;BME280;20617;49.476;10.986;2023-03-18T09:53:12;97960.78;;;13.36;100.00
12879;BME280;20617;49.476;10.986;2023-03-18T09:55:24;97959.34;;;13.47;100.00
12879;BME280;20617;49.476;10.986;2023-03-18T09:57:37;97957.84;;;13.57;100.00
12879;BME280;20617;49.476;10.986;2023-03-18T09:59:45;97964.31;;;13.66;100.00
12879;BME280;20617;49.476;10.986;2023-03-18T10:01:53;97966.56;;;13.72;100.00
12879;BME280;20617;49.476;10.986;2023-03-18T10:04:02;97963.69;;;13.76;100.00
12879;BME280;20617;49.476;10.986;2023-03-18T10:06:14;97961.34;;;13.86;100.00
12879;BME280;20617;49.476;10.986;2023-03-18T10:08:30;97962.31;;;13.99;100.00
12879;BME280;20617;49.476;10.986;2023-03-18T10:10:42;97968.38;;;14.14;100.00
12879;BME280;20617;49.476;10.986;2023-03-18T10:12:59;97964.06;;;14.27;100.00
12879;BME280;20617;49.476;10.986;2023-03-18T10:15:13;97968.84;;;14.35;100.00
12879;BME280;20617;49.476;10.986;2023-03-18T10:17:24;97958.72;;;14.43;100.00
12879;BME280;20617;49.476;10.986;2023-03-18T10:19:34;97965.56;;;14.46;100.00
12879;BME280;20617;49.476;10.986;2023-03-18T10:21:45;97959.84;;;14.54;100.00
12879;BME280;20617;49.476;10.986;2023-03-18T10:23:59;97961.16;;;14.46;100.00
12879;BME280;20617;49.476;10.986;2023-03-18T10:26:14;97956.13;;;14.58;100.00
12879;BME280;20617;49.476;10.986;2023-03-18T10:28:35;97954.69;;;14.66;100.00
12879;BME280;20617;49.476;10.986;2023-03-18T10:30:51;97948.66;;;14.79;100.00
12879;BME280;20617;49.476;10.986;2023-03-18T10:33:06;97947.03;;;14.90;100.00
12879;BME280;20617;49.476;10.986;2023-03-18T10:35:25;97945.09;;;15.07;100.00
12879;BME280;20617;49.476;10.986;2023-03-18T10:37:44;97940.09;;;15.16;100.00
12879;BME280;20617;49.476;10.986;2023-03-18T10:39:52;97936.31;;;15.21;99.88
12879;BME280;20617;49.476;10.986;2023-03-18T10:42:01;97935.50;;;15.33;97.89
12879;BME280;20617;49.476;10.986;2023-03-18T10:44:19;97936.97;;;15.37;96.98
12879;BME280;20617;49.476;10.986;2023-03-18T10:46:26;97927.88;;;15.43;94.87
12879;BME280;20617;49.476;10.986;2023-03-18T10:48:33;97933.63;;;15.35;93.02
12879;BME280;20617;49.476;10.986;2023-03-18T10:50:42;97929.88;;;15.39;95.43
12879;BME280;20617;49.476;10.986;2023-03-18T10:52:53;97927.25;;;15.39;93.75
12879;BME280;20617;49.476;10.986;2023-03-18T10:55:00;97926.09;;;15.43;94.17
12879;BME280;20617;49.476;10.986;2023-03-18T10:57:07;97928.28;;;15.49;93.38
12879;BME280;20617;49.476;10.986;2023-03-18T10:59:19;97927.38;;;15.63;93.99
12879;BME280;20617;49.476;10.986;2023-03-18T11:01:27;97921.44;;;15.74;93.00
12879;BME280;20617;49.476;10.986;2023-03-18T11:03:34;97916.47;;;15.82;90.90
12879;BME280;20617;49.476;10.986;2023-03-18T11:05:40;97917.75;;;15.89;90.85
12879;BME280;20617;49.476;10.986;2023-03-18T11:07:56;97913.09;;;15.93;89.38
12879;BME280;20617;49.476;10.986;2023-03-18T11:10:13;97914.25;;;16.01;90.18
12879;BME280;20617;49.476;10.986;2023-03-18T11:12:24;97913.81;;;16.07;90.87
12879;BME280;20617;49.476;10.986;2023-03-18T11:14:33;97911.59;;;16.14;89.61
12879;BME280;20617;49.476;10.986;2023-03-18T11:16:45;97909.72;;;16.16;86.87